Hlavní strana
METAR-TAF:

METAR-TAF

Letiště :

Tartu, Estonsko

zeměpisná šířka: 58-18N, zeměpisná délka: 026-44E, výška: 59 m

Aktuální stav počasí

Zpráva byla vytvořena před 30 minutami, v 18:20 UTC
Jihojihovýchodní vítr 9 kt, proměnlivý mezi východojihovýchodním a jihojihozápadním
Teplota 4°C
Vlhkost vzduchu 75%
Tlak 993 hPa
Viditelnost 10 km a více

METAR: EETU 221820Z AUTO 16009KT 120V200 9999 OVC100/// 04/M00 Q0993

Čas: 20:50 (18:50 UTC)


TAF: chybějící

Stav a předpovědi počasí z více než 4 000 letišť (zprávy METAR a TAF).

Červené a žluté tečky na mapě představují dostupné meteorologické stanice.

Když kurzor umístíte na tečku, zobrazí se název stanice.

Pak kliknutím zobrazíte stav a předpověď počasí.

Chcete-li změnit mapu, kliknutím na zelené tlačítko se znaménkem +mapu přiblížíte, kliknutím na zelené tlačítko se znaménkem – mapu oddálíte a kliknutím na zelené šipky přejdete na sousední mapy.


METAR-TAF: